sensor_id;sensor_type;location;lat;lon;timestamp;temperature;humidity
20045;DHT22;10183;47.808;9.476;2023-09-08T00:01:44;15.30;99.90
20045;DHT22;10183;47.808;9.476;2023-09-08T00:04:30;15.30;99.90
20045;DHT22;10183;47.808;9.476;2023-09-08T00:07:16;15.30;99.90
20045;DHT22;10183;47.808;9.476;2023-09-08T00:10:02;15.20;99.90
20045;DHT22;10183;47.808;9.476;2023-09-08T00:12:48;15.30;99.90
20045;DHT22;10183;47.808;9.476;2023-09-08T00:15:34;15.30;99.90
20045;DHT22;10183;47.808;9.476;2023-09-08T00:18:23;15.30;99.90
20045;DHT22;10183;47.808;9.476;2023-09-08T00:21:09;15.20;99.90
20045;DHT22;10183;47.808;9.476;2023-09-08T00:23:55;15.20;99.90
20045;DHT22;10183;47.808;9.476;2023-09-08T00:26:42;15.10;99.90
20045;DHT22;10183;47.808;9.476;2023-09-08T00:29:28;15.10;99.90
20045;DHT22;10183;47.808;9.476;2023-09-08T00:32:14;15.00;99.90
20045;DHT22;10183;47.808;9.476;2023-09-08T00:35:00;15.00;99.90
20045;DHT22;10183;47.808;9.476;2023-09-08T00:37:46;15.10;99.90
20045;DHT22;10183;47.808;9.476;2023-09-08T00:40:32;15.00;99.90
20045;DHT22;10183;47.808;9.476;2023-09-08T00:43:18;15.00;99.90
20045;DHT22;10183;47.808;9.476;2023-09-08T00:46:04;15.00;99.90
20045;DHT22;10183;47.808;9.476;2023-09-08T00:48:51;15.00;99.90
20045;DHT22;10183;47.808;9.476;2023-09-08T00:51:37;14.90;99.90
20045;DHT22;10183;47.808;9.476;2023-09-08T00:54:23;15.00;99.90
20045;DHT22;10183;47.808;9.476;2023-09-08T00:57:09;15.00;99.90
20045;DHT22;10183;47.808;9.476;2023-09-08T00:59:56;15.00;99.90
20045;DHT22;10183;47.808;9.476;2023-09-08T01:02:42;15.00;99.90
20045;DHT22;10183;47.808;9.476;2023-09-08T01:05:29;15.00;99.90
20045;DHT22;10183;47.808;9.476;2023-09-08T01:08:15;14.90;99.90
20045;DHT22;10183;47.808;9.476;2023-09-08T01:11:02;14.90;99.90
20045;DHT22;10183;47.808;9.476;2023-09-08T01:13:48;14.90;99.90
20045;DHT22;10183;47.808;9.476;2023-09-08T01:16:34;14.90;99.90
20045;DHT22;10183;47.808;9.476;2023-09-08T01:19:21;14.80;99.90
20045;DHT22;10183;47.808;9.476;2023-09-08T01:27:52;14.80;99.90
20045;DHT22;10183;47.808;9.476;2023-09-08T01:30:38;14.80;99.90
20045;DHT22;10183;47.808;9.476;2023-09-08T01:33:26;14.90;99.90
20045;DHT22;10183;47.808;9.476;2023-09-08T01:36:13;14.90;99.90
20045;DHT22;10183;47.808;9.476;2023-09-08T01:39:00;14.90;99.90
20045;DHT22;10183;47.808;9.476;2023-09-08T01:41:46;14.80;99.90
20045;DHT22;10183;47.808;9.476;2023-09-08T01:44:32;14.70;99.90
20045;DHT22;10183;47.808;9.476;2023-09-08T01:47:18;14.50;99.90
20045;DHT22;10183;47.808;9.476;2023-09-08T01:50:05;14.40;99.90
20045;DHT22;10183;47.808;9.476;2023-09-08T01:52:51;14.30;99.90
20045;DHT22;10183;47.808;9.476;2023-09-08T01:55:37;14.30;99.90
20045;DHT22;10183;47.808;9.476;2023-09-08T01:58:23;14.30;99.90
20045;DHT22;10183;47.808;9.476;2023-09-08T02:01:09;14.20;99.90
20045;DHT22;10183;47.808;9.476;2023-09-08T02:03:55;14.30;99.90
20045;DHT22;10183;47.808;9.476;2023-09-08T02:06:41;14.30;99.90
20045;DHT22;10183;47.808;9.476;2023-09-08T02:09:34;14.30;99.90
20045;DHT22;10183;47.808;9.476;2023-09-08T02:12:21;14.30;99.90
20045;DHT22;10183;47.808;9.476;2023-09-08T02:15:08;14.20;99.90
20045;DHT22;10183;47.808;9.476;2023-09-08T02:17:54;14.20;99.90
20045;DHT22;10183;47.808;9.476;2023-09-08T02:20:40;14.10;99.90
20045;DHT22;10183;47.808;9.476;2023-09-08T02:23:26;14.10;99.90
20045;DHT22;10183;47.808;9.476;2023-09-08T02:26:12;14.10;99.90
20045;DHT22;10183;47.808;9.476;2023-09-08T02:28:58;14.10;99.90
20045;DHT22;10183;47.808;9.476;2023-09-08T02:31:44;14.10;99.90
20045;DHT22;10183;47.808;9.476;2023-09-08T02:34:34;14.10;99.90
20045;DHT22;10183;47.808;9.476;2023-09-08T02:37:22;14.00;99.90
20045;DHT22;10183;47.808;9.476;2023-09-08T02:40:08;14.00;99.90
20045;DHT22;10183;47.808;9.476;2023-09-08T02:42:54;14.10;99.90
20045;DHT22;10183;47.808;9.476;2023-09-08T02:45:40;14.10;99.90
20045;DHT22;10183;47.808;9.476;2023-09-08T02:48:26;14.00;99.90
20045;DHT22;10183;47.808;9.476;2023-09-08T02:51:12;14.00;99.90
20045;DHT22;10183;47.808;9.476;2023-09-08T02:53:58;14.00;99.90
20045;DHT22;10183;47.808;9.476;2023-09-08T02:56:43;14.00;99.90
20045;DHT22;10183;47.808;9.476;2023-09-08T02:59:29;14.10;99.90
20045;DHT22;10183;47.808;9.476;2023-09-08T03:02:17;14.10;99.90
20045;DHT22;10183;47.808;9.476;2023-09-08T03:05:03;14.10;99.90
20045;DHT22;10183;47.808;9.476;2023-09-08T03:07:49;14.10;99.90
20045;DHT22;10183;47.808;9.476;2023-09-08T03:10:35;14.10;99.90
20045;DHT22;10183;47.808;9.476;2023-09-08T03:13:22;14.20;99.90
20045;DHT22;10183;47.808;9.476;2023-09-08T03:16:08;14.20;99.90
20045;DHT22;10183;47.808;9.476;2023-09-08T03:18:54;14.20;99.90
20045;DHT22;10183;47.808;9.476;2023-09-08T03:21:40;14.20;99.90
20045;DHT22;10183;47.808;9.476;2023-09-08T03:24:26;14.20;99.90
20045;DHT22;10183;47.808;9.476;2023-09-08T03:27:12;14.10;99.90
20045;DHT22;10183;47.808;9.476;2023-09-08T03:29:58;14.00;99.90
20045;DHT22;10183;47.808;9.476;2023-09-08T03:32:44;14.00;99.90
20045;DHT22;10183;47.808;9.476;2023-09-08T03:35:31;14.00;99.90
20045;DHT22;10183;47.808;9.476;2023-09-08T03:38:17;14.00;99.90
20045;DHT22;10183;47.808;9.476;2023-09-08T03:41:03;13.90;99.90
20045;DHT22;10183;47.808;9.476;2023-09-08T03:43:49;13.90;99.90
20045;DHT22;10183;47.808;9.476;2023-09-08T03:46:35;13.90;99.90
20045;DHT22;10183;47.808;9.476;2023-09-08T03:49:21;13.80;99.90
20045;DHT22;10183;47.808;9.476;2023-09-08T03:52:07;13.70;99.90
20045;DHT22;10183;47.808;9.476;2023-09-08T03:54:53;13.70;99.90
20045;DHT22;10183;47.808;9.476;2023-09-08T03:57:39;13.50;99.90
20045;DHT22;10183;47.808;9.476;2023-09-08T04:00:25;13.50;99.90
20045;DHT22;10183;47.808;9.476;2023-09-08T04:03:11;13.50;99.90
20045;DHT22;10183;47.808;9.476;2023-09-08T04:05:57;13.40;99.90
20045;DHT22;10183;47.808;9.476;2023-09-08T04:08:43;13.30;99.90
20045;DHT22;10183;47.808;9.476;2023-09-08T04:11:29;13.30;99.90
20045;DHT22;10183;47.808;9.476;2023-09-08T04:14:15;13.30;99.90
20045;DHT22;10183;47.808;9.476;2023-09-08T04:17:01;13.20;99.90
20045;DHT22;10183;47.808;9.476;2023-09-08T04:19:47;13.20;99.90
20045;DHT22;10183;47.808;9.476;2023-09-08T04:22:33;13.20;99.90
20045;DHT22;10183;47.808;9.476;2023-09-08T04:25:21;13.20;99.90
20045;DHT22;10183;47.808;9.476;2023-09-08T04:28:07;13.20;99.90
20045;DHT22;10183;47.808;9.476;2023-09-08T04:30:53;13.20;99.90
20045;DHT22;10183;47.808;9.476;2023-09-08T04:33:39;13.20;99.90
20045;DHT22;10183;47.808;9.476;2023-09-08T04:36:25;13.20;99.90
20045;DHT22;10183;47.808;9.476;2023-09-08T04:39:11;13.20;99.90
20045;DHT22;10183;47.808;9.476;2023-09-08T04:41:57;13.20;99.90
20045;DHT22;10183;47.808;9.476;2023-09-08T04:44:43;13.20;99.90
20045;DHT22;10183;47.808;9.476;2023-09-08T04:47:29;13.20;99.90
20045;DHT22;10183;47.808;9.476;2023-09-08T04:50:15;13.10;99.90
20045;DHT22;10183;47.808;9.476;2023-09-08T04:53:01;13.20;99.90
20045;DHT22;10183;47.808;9.476;2023-09-08T04:55:47;13.20;99.90
20045;DHT22;10183;47.808;9.476;2023-09-08T04:58:33;13.20;99.90
20045;DHT22;10183;47.808;9.476;2023-09-08T05:01:18;13.20;99.90
20045;DHT22;10183;47.808;9.476;2023-09-08T05:04:04;13.20;99.90
20045;DHT22;10183;47.808;9.476;2023-09-08T05:06:50;13.20;99.90
20045;DHT22;10183;47.808;9.476;2023-09-08T05:09:36;13.20;99.90
20045;DHT22;10183;47.808;9.476;2023-09-08T05:12:22;13.20;99.90
20045;DHT22;10183;47.808;9.476;2023-09-08T05:15:09;13.20;99.90
20045;DHT22;10183;47.808;9.476;2023-09-08T05:18:00;13.10;99.90
20045;DHT22;10183;47.808;9.476;2023-09-08T05:20:47;13.10;99.90
20045;DHT22;10183;47.808;9.476;2023-09-08T05:23:34;13.10;99.90
20045;DHT22;10183;47.808;9.476;2023-09-08T05:26:19;13.10;99.90
20045;DHT22;10183;47.808;9.476;2023-09-08T05:29:05;13.10;99.90
20045;DHT22;10183;47.808;9.476;2023-09-08T05:31:51;13.30;99.90
20045;DHT22;10183;47.808;9.476;2023-09-08T05:34:37;13.30;99.90
20045;DHT22;10183;47.808;9.476;2023-09-08T05:37:23;13.40;99.90
20045;DHT22;10183;47.808;9.476;2023-09-08T05:40:09;13.40;99.90
20045;DHT22;10183;47.808;9.476;2023-09-08T05:42:55;13.50;99.90
20045;DHT22;10183;47.808;9.476;2023-09-08T05:45:41;13.50;99.90
20045;DHT22;10183;47.808;9.476;2023-09-08T05:48:27;13.60;99.90
20045;DHT22;10183;47.808;9.476;2023-09-08T05:51:14;13.60;99.90
20045;DHT22;10183;47.808;9.476;2023-09-08T05:54:00;13.70;99.90
20045;DHT22;10183;47.808;9.476;2023-09-08T05:56:46;13.80;99.90
20045;DHT22;10183;47.808;9.476;2023-09-08T05:59:32;13.80;99.90
20045;DHT22;10183;47.808;9.476;2023-09-08T06:02:18;13.90;99.90
20045;DHT22;10183;47.808;9.476;2023-09-08T06:05:04;13.90;99.90
20045;DHT22;10183;47.808;9.476;2023-09-08T06:07:51;14.00;99.90
20045;DHT22;10183;47.808;9.476;2023-09-08T06:10:38;14.10;99.90
20045;DHT22;10183;47.808;9.476;2023-09-08T06:13:24;14.10;99.90
20045;DHT22;10183;47.808;9.476;2023-09-08T06:16:10;14.10;99.90
20045;DHT22;10183;47.808;9.476;2023-09-08T06:18:56;14.30;99.90
20045;DHT22;10183;47.808;9.476;2023-09-08T06:21:42;14.40;99.90
20045;DHT22;10183;47.808;9.476;2023-09-08T06:24:28;14.60;99.90
20045;DHT22;10183;47.808;9.476;2023-09-08T06:27:15;14.70;99.90
20045;DHT22;10183;47.808;9.476;2023-09-08T06:30:01;14.90;99.90
20045;DHT22;10183;47.808;9.476;2023-09-08T06:32:48;15.00;99.90
20045;DHT22;10183;47.808;9.476;2023-09-08T06:35:34;15.10;99.90
20045;DHT22;10183;47.808;9.476;2023-09-08T06:38:20;15.30;99.90
20045;DHT22;10183;47.808;9.476;2023-09-08T06:41:12;15.40;99.90
20045;DHT22;10183;47.808;9.476;2023-09-08T06:43:58;15.50;99.90
20045;DHT22;10183;47.808;9.476;2023-09-08T06:46:44;15.60;99.90
20045;DHT22;10183;47.808;9.476;2023-09-08T06:49:30;15.70;99.90
20045;DHT22;10183;47.808;9.476;2023-09-08T06:52:17;15.90;99.90
20045;DHT22;10183;47.808;9.476;2023-09-08T06:55:03;16.10;99.90
20045;DHT22;10183;47.808;9.476;2023-09-08T06:57:50;16.30;99.90
20045;DHT22;10183;47.808;9.476;2023-09-08T07:00:36;16.50;99.90
20045;DHT22;10183;47.808;9.476;2023-09-08T07:03:22;16.70;99.90
20045;DHT22;10183;47.808;9.476;2023-09-08T07:06:08;16.90;99.90
20045;DHT22;10183;47.808;9.476;2023-09-08T07:08:54;16.90;99.90
20045;DHT22;10183;47.808;9.476;2023-09-08T07:11:41;17.10;99.90
20045;DHT22;10183;47.808;9.476;2023-09-08T07:14:27;17.20;99.90
20045;DHT22;10183;47.808;9.476;2023-09-08T07:17:13;17.10;99.90
20045;DHT22;10183;47.808;9.476;2023-09-08T07:19:59;17.30;99.90
20045;DHT22;10183;47.808;9.476;2023-09-08T07:22:46;17.40;99.90
20045;DHT22;10183;47.808;9.476;2023-09-08T07:25:33;17.50;99.90
20045;DHT22;10183;47.808;9.476;2023-09-08T07:28:19;17.60;99.90
20045;DHT22;10183;47.808;9.476;2023-09-08T07:31:05;17.80;99.90
20045;DHT22;10183;47.808;9.476;2023-09-08T07:33:52;17.90;99.90
20045;DHT22;10183;47.808;9.476;2023-09-08T07:36:38;18.00;99.90
20045;DHT22;10183;47.808;9.476;2023-09-08T07:39:24;18.20;99.90
20045;DHT22;10183;47.808;9.476;2023-09-08T07:42:10;18.40;99.90
20045;DHT22;10183;47.808;9.476;2023-09-08T07:44:56;18.60;99.90
20045;DHT22;10183;47.808;9.476;2023-09-08T07:47:43;18.80;99.90
20045;DHT22;10183;47.808;9.476;2023-09-08T07:50:31;18.90;99.90
20045;DHT22;10183;47.808;9.476;2023-09-08T07:53:17;19.10;99.90
20045;DHT22;10183;47.808;9.476;2023-09-08T07:56:03;19.00;99.90
20045;DHT22;10183;47.808;9.476;2023-09-08T07:58:49;19.20;99.90
20045;DHT22;10183;47.808;9.476;2023-09-08T08:01:35;19.40;99.90
20045;DHT22;10183;47.808;9.476;2023-09-08T08:04:22;19.60;99.90
20045;DHT22;10183;47.808;9.476;2023-09-08T08:07:08;19.80;99.90
20045;DHT22;10183;47.808;9.476;2023-09-08T08:09:54;20.00;99.90
20045;DHT22;10183;47.808;9.476;2023-09-08T08:12:41;20.00;99.90
20045;DHT22;10183;47.808;9.476;2023-09-08T08:15:37;20.20;99.90
20045;DHT22;10183;47.808;9.476;2023-09-08T08:18:23;20.20;99.90
20045;DHT22;10183;47.808;9.476;2023-09-08T08:21:09;20.40;99.90
20045;DHT22;10183;47.808;9.476;2023-09-08T08:23:55;20.50;99.90
20045;DHT22;10183;47.808;9.476;2023-09-08T08:26:41;20.80;99.90
20045;DHT22;10183;47.808;9.476;2023-09-08T08:29:27;20.80;99.90
20045;DHT22;10183;47.808;9.476;2023-09-08T08:32:13;20.80;99.90
20045;DHT22;10183;47.808;9.476;2023-09-08T08:34:59;21.10;99.90
20045;DHT22;10183;47.808;9.476;2023-09-08T08:37:45;21.40;99.90
20045;DHT22;10183;47.808;9.476;2023-09-08T08:40:32;21.50;99.90
20045;DHT22;10183;47.808;9.476;2023-09-08T08:43:21;21.50;99.90
20045;DHT22;10183;47.808;9.476;2023-09-08T08:46:08;21.40;99.90
20045;DHT22;10183;47.808;9.476;2023-09-08T08:48:55;21.70;99.90
20045;DHT22;10183;47.808;9.476;2023-09-08T08:51:44;22.10;99.90
20045;DHT22;10183;47.808;9.476;2023-09-08T08:54:31;22.00;99.90
20045;DHT22;10183;47.808;9.476;2023-09-08T08:57:17;22.20;99.90
20045;DHT22;10183;47.808;9.476;2023-09-08T09:00:07;22.50;99.90
20045;DHT22;10183;47.808;9.476;2023-09-08T09:02:58;22.60;99.90
20045;DHT22;10183;47.808;9.476;2023-09-08T09:05:45;22.80;99.90
20045;DHT22;10183;47.808;9.476;2023-09-08T09:08:32;22.80;99.90
20045;DHT22;10183;47.808;9.476;2023-09-08T09:11:18;22.80;99.90
20045;DHT22;10183;47.808;9.476;2023-09-08T09:14:04;22.70;99.90
20045;DHT22;10183;47.808;9.476;2023-09-08T09:16:50;22.60;99.90
20045;DHT22;10183;47.808;9.476;2023-09-08T09:19:36;22.70;99.90
20045;DHT22;10183;47.808;9.476;2023-09-08T09:22:23;22.80;99.90
20045;DHT22;10183;47.808;9.476;2023-09-08T09:25:09;22.90;99.90
20045;DHT22;10183;47.808;9.476;2023-09-08T09:28:01;23.10;99.90
20045;DHT22;10183;47.808;9.476;2023-09-08T09:30:49;23.30;99.90
20045;DHT22;10183;47.808;9.476;2023-09-08T09:33:35;23.50;99.90
20045;DHT22;10183;47.808;9.476;2023-09-08T09:36:21;23.80;99.90
20045;DHT22;10183;47.808;9.476;2023-09-08T09:39:07;24.00;99.90
20045;DHT22;10183;47.808;9.476;2023-09-08T09:41:54;23.50;99.90
20045;DHT22;10183;47.808;9.476;2023-09-08T09:44:41;23.50;99.90
20045;DHT22;10183;47.808;9.476;2023-09-08T09:47:27;23.40;99.90
20045;DHT22;10183;47.808;9.476;2023-09-08T09:50:13;23.60;99.90
20045;DHT22;10183;47.808;9.476;2023-09-08T09:53:01;24.00;99.90
20045;DHT22;10183;47.808;9.476;2023-09-08T09:55:47;24.20;99.90
20045;DHT22;10183;47.808;9.476;2023-09-08T09:58:33;24.30;99.90
20045;DHT22;10183;47.808;9.476;2023-09-08T10:01:20;24.40;99.90
20045;DHT22;10183;47.808;9.476;2023-09-08T10:04:07;24.40;99.90
20045;DHT22;10183;47.808;9.476;2023-09-08T10:06:53;24.20;99.90
20045;DHT22;10183;47.808;9.476;2023-09-08T10:09:39;24.20;99.90
20045;DHT22;10183;47.808;9.476;2023-09-08T10:12:26;24.40;99.90
20045;DHT22;10183;47.808;9.476;2023-09-08T10:15:23;24.50;99.90
20045;DHT22;10183;47.808;9.476;2023-09-08T10:18:10;24.60;99.90
20045;DHT22;10183;47.808;9.476;2023-09-08T10:21:03;24.60;99.90
20045;DHT22;10183;47.808;9.476;2023-09-08T10:23:57;24.80;99.90
20045;DHT22;10183;47.808;9.476;2023-09-08T10:27:11;25.20;99.90
20045;DHT22;10183;47.808;9.476;2023-09-08T10:29:57;25.20;99.90
20045;DHT22;10183;47.808;9.476;2023-09-08T10:32:43;25.00;99.90
20045;DHT22;10183;47.808;9.476;2023-09-08T10:35:29;25.50;99.90
20045;DHT22;10183;47.808;9.476;2023-09-08T10:38:27;25.80;99.90
20045;DHT22;10183;47.808;9.476;2023-09-08T10:44:03;26.40;99.90
20045;DHT22;10183;47.808;9.476;2023-09-08T10:46:53;26.30;99.90
20045;DHT22;10183;47.808;9.476;2023-09-08T10:49:40;26.00;99.90
20045;DHT22;10183;47.808;9.476;2023-09-08T10:52:26;26.40;99.90
20045;DHT22;10183;47.808;9.476;2023-09-08T10:55:12;25.90;99.90
20045;DHT22;10183;47.808;9.476;2023-09-08T10:57:58;25.80;99.90
20045;DHT22;10183;47.808;9.476;2023-09-08T11:00:46;26.30;99.90
20045;DHT22;10183;47.808;9.476;2023-09-08T11:06:22;26.40;99.90
20045;DHT22;10183;47.808;9.476;2023-09-08T11:09:09;26.70;99.90
20045;DHT22;10183;47.808;9.476;2023-09-08T11:11:55;26.50;99.90
20045;DHT22;10183;47.808;9.476;2023-09-08T11:14:43;26.20;99.90
20045;DHT22;10183;47.808;9.476;2023-09-08T11:17:31;26.80;99.90
20045;DHT22;10183;47.808;9.476;2023-09-08T11:20:26;27.00;99.90
20045;DHT22;10183;47.808;9.476;2023-09-08T11:23:13;27.50;99.90
20045;DHT22;10183;47.808;9.476;2023-09-08T11:26:00;27.80;99.90
20045;DHT22;10183;47.808;9.476;2023-09-08T11:28:46;27.50;99.90
20045;DHT22;10183;47.808;9.476;2023-09-08T11:31:35;27.10;99.90
20045;DHT22;10183;47.808;9.476;2023-09-08T11:34:21;27.30;99.90
20045;DHT22;10183;47.808;9.476;2023-09-08T11:37:11;27.90;99.90
20045;DHT22;10183;47.808;9.476;2023-09-08T11:39:59;27.80;99.90
20045;DHT22;10183;47.808;9.476;2023-09-08T11:42:45;28.10;99.90
20045;DHT22;10183;47.808;9.476;2023-09-08T11:45:34;28.40;99.90
20045;DHT22;10183;47.808;9.476;2023-09-08T11:48:20;27.90;99.90
20045;DHT22;10183;47.808;9.476;2023-09-08T11:51:07;28.20;99.90
20045;DHT22;10183;47.808;9.476;2023-09-08T11:53:54;28.70;99.90
20045;DHT22;10183;47.808;9.476;2023-09-08T11:56:41;28.20;99.90
20045;DHT22;10183;47.808;9.476;2023-09-08T11:59:30;28.00;99.90
20045;DHT22;10183;47.808;9.476;2023-09-08T12:02:16;28.60;99.90
20045;DHT22;10183;47.808;9.476;2023-09-08T12:05:10;28.10;99.90
20045;DHT22;10183;47.808;9.476;2023-09-08T12:07:57;28.40;99.90
20045;DHT22;10183;47.808;9.476;2023-09-08T12:10:43;29.20;99.90
20045;DHT22;10183;47.808;9.476;2023-09-08T12:13:29;30.80;99.90
20045;DHT22;10183;47.808;9.476;2023-09-08T12:16:21;30.70;99.90
20045;DHT22;10183;47.808;9.476;2023-09-08T12:19:28;30.30;99.90
20045;DHT22;10183;47.808;9.476;2023-09-08T12:22:14;31.30;99.90
20045;DHT22;10183;47.808;9.476;2023-09-08T12:25:08;31.90;99.90
20045;DHT22;10183;47.808;9.476;2023-09-08T12:27:54;31.50;99.90
20045;DHT22;10183;47.808;9.476;2023-09-08T12:30:40;31.20;99.90
20045;DHT22;10183;47.808;9.476;2023-09-08T12:33:28;32.30;97.20
20045;DHT22;10183;47.808;9.476;2023-09-08T12:36:18;34.00;95.30
20045;DHT22;10183;47.808;9.476;2023-09-08T12:39:04;37.00;34.50
20045;DHT22;10183;47.808;9.476;2023-09-08T12:41:50;34.10;28.70
20045;DHT22;10183;47.808;9.476;2023-09-08T12:44:36;32.90;72.50
20045;DHT22;10183;47.808;9.476;2023-09-08T12:47:22;34.50;70.80
20045;DHT22;10183;47.808;9.476;2023-09-08T12:50:09;33.30;40.00
20045;DHT22;10183;47.808;9.476;2023-09-08T12:52:55;34.20;50.90
20045;DHT22;10183;47.808;9.476;2023-09-08T12:55:42;35.20;28.60
20045;DHT22;10183;47.808;9.476;2023-09-08T12:58:29;36.60;24.60
20045;DHT22;10183;47.808;9.476;2023-09-08T13:01:14;39.50;1.00
20045;DHT22;10183;47.808;9.476;2023-09-08T13:04:00;40.50;1.00
20045;DHT22;10183;47.808;9.476;2023-09-08T13:06:47;41.80;1.00
20045;DHT22;10183;47.808;9.476;2023-09-08T13:09:33;41.20;1.00
20045;DHT22;10183;47.808;9.476;2023-09-08T13:12:19;40.50;1.00
20045;DHT22;10183;47.808;9.476;2023-09-08T13:15:05;35.70;1.00
20045;DHT22;10183;47.808;9.476;2023-09-08T13:17:51;34.70;9.90
20045;DHT22;10183;47.808;9.476;2023-09-08T13:20:37;35.50;7.90
20045;DHT22;10183;47.808;9.476;2023-09-08T13:23:26;36.30;1.00
20045;DHT22;10183;47.808;9.476;2023-09-08T13:26:12;36.10;1.00
20045;DHT22;10183;47.808;9.476;2023-09-08T13:28:58;35.70;1.00
20045;DHT22;10183;47.808;9.476;2023-09-08T13:31:44;37.70;1.00
20045;DHT22;10183;47.808;9.476;2023-09-08T13:34:30;37.20;1.00
20045;DHT22;10183;47.808;9.476;2023-09-08T13:37:16;35.70;2.40
20045;DHT22;10183;47.808;9.476;2023-09-08T13:40:02;35.00;21.20
20045;DHT22;10183;47.808;9.476;2023-09-08T13:42:51;34.80;21.50
20045;DHT22;10183;47.808;9.476;2023-09-08T13:45:37;34.80;27.50
20045;DHT22;10183;47.808;9.476;2023-09-08T13:48:23;35.80;23.30
20045;DHT22;10183;47.808;9.476;2023-09-08T13:51:09;37.40;1.00
20045;DHT22;10183;47.808;9.476;2023-09-08T13:53:56;39.50;1.00
20045;DHT22;10183;47.808;9.476;2023-09-08T13:56:42;36.00;1.00
20045;DHT22;10183;47.808;9.476;2023-09-08T13:59:29;34.70;4.20
20045;DHT22;10183;47.808;9.476;2023-09-08T14:02:16;33.60;21.60
20045;DHT22;10183;47.808;9.476;2023-09-08T14:05:03;34.20;17.40
20045;DHT22;10183;47.808;9.476;2023-09-08T14:07:49;35.10;32.20
20045;DHT22;10183;47.808;9.476;2023-09-08T14:10:36;35.40;12.70
20045;DHT22;10183;47.808;9.476;2023-09-08T14:13:22;38.50;1.00
20045;DHT22;10183;47.808;9.476;2023-09-08T14:16:08;40.40;1.00
20045;DHT22;10183;47.808;9.476;2023-09-08T14:18:55;40.30;1.00
20045;DHT22;10183;47.808;9.476;2023-09-08T14:21:41;40.30;1.00
20045;DHT22;10183;47.808;9.476;2023-09-08T14:24:28;41.10;1.00
20045;DHT22;10183;47.808;9.476;2023-09-08T14:27:14;42.00;1.00
20045;DHT22;10183;47.808;9.476;2023-09-08T14:30:00;43.10;1.00
20045;DHT22;10183;47.808;9.476;2023-09-08T14:32:47;43.40;1.00
20045;DHT22;10183;47.808;9.476;2023-09-08T14:35:34;43.00;1.00
20045;DHT22;10183;47.808;9.476;2023-09-08T14:38:21;43.10;1.00
20045;DHT22;10183;47.808;9.476;2023-09-08T14:41:07;42.20;1.00
20045;DHT22;10183;47.808;9.476;2023-09-08T14:43:54;42.80;1.00
20045;DHT22;10183;47.808;9.476;2023-09-08T14:46:40;42.40;1.00
20045;DHT22;10183;47.808;9.476;2023-09-08T14:49:26;42.30;1.00
20045;DHT22;10183;47.808;9.476;2023-09-08T14:52:12;42.80;1.00
20045;DHT22;10183;47.808;9.476;2023-09-08T14:54:58;42.70;1.00
20045;DHT22;10183;47.808;9.476;2023-09-08T14:57:44;42.70;1.00
20045;DHT22;10183;47.808;9.476;2023-09-08T15:00:30;42.30;1.00
20045;DHT22;10183;47.808;9.476;2023-09-08T15:03:16;43.40;1.00
20045;DHT22;10183;47.808;9.476;2023-09-08T15:06:02;42.20;1.00
20045;DHT22;10183;47.808;9.476;2023-09-08T15:08:48;42.30;1.00
20045;DHT22;10183;47.808;9.476;2023-09-08T15:11:34;40.10;1.00
20045;DHT22;10183;47.808;9.476;2023-09-08T15:14:20;38.10;1.00
20045;DHT22;10183;47.808;9.476;2023-09-08T15:17:06;39.20;1.00
20045;DHT22;10183;47.808;9.476;2023-09-08T15:19:52;41.80;1.00
20045;DHT22;10183;47.808;9.476;2023-09-08T15:22:38;42.70;1.00
20045;DHT22;10183;47.808;9.476;2023-09-08T15:25:24;42.30;1.00
20045;DHT22;10183;47.808;9.476;2023-09-08T15:28:10;42.20;1.00
20045;DHT22;10183;47.808;9.476;2023-09-08T15:30:56;43.40;1.00
20045;DHT22;10183;47.808;9.476;2023-09-08T15:33:42;41.40;1.00
20045;DHT22;10183;47.808;9.476;2023-09-08T15:36:28;38.30;1.00
20045;DHT22;10183;47.808;9.476;2023-09-08T15:39:14;35.70;1.00
20045;DHT22;10183;47.808;9.476;2023-09-08T15:42:01;36.90;1.00
20045;DHT22;10183;47.808;9.476;2023-09-08T15:44:48;36.30;1.00
20045;DHT22;10183;47.808;9.476;2023-09-08T15:47:34;35.60;1.00
20045;DHT22;10183;47.808;9.476;2023-09-08T15:50:20;36.10;1.00
20045;DHT22;10183;47.808;9.476;2023-09-08T15:53:06;38.30;1.00
20045;DHT22;10183;47.808;9.476;2023-09-08T15:55:52;39.70;1.00
20045;DHT22;10183;47.808;9.476;2023-09-08T15:58:38;38.20;1.00
20045;DHT22;10183;47.808;9.476;2023-09-08T16:01:24;35.70;1.00
20045;DHT22;10183;47.808;9.476;2023-09-08T16:04:10;36.10;15.30
20045;DHT22;10183;47.808;9.476;2023-09-08T16:06:57;37.30;2.00
20045;DHT22;10183;47.808;9.476;2023-09-08T16:09:43;38.70;1.00
20045;DHT22;10183;47.808;9.476;2023-09-08T16:12:29;38.70;1.00
20045;DHT22;10183;47.808;9.476;2023-09-08T16:15:17;37.60;1.00
20045;DHT22;10183;47.808;9.476;2023-09-08T16:18:03;36.70;6.90
20045;DHT22;10183;47.808;9.476;2023-09-08T16:20:50;35.80;20.30
20045;DHT22;10183;47.808;9.476;2023-09-08T16:23:36;35.80;26.80
20045;DHT22;10183;47.808;9.476;2023-09-08T16:26:23;34.40;66.70
20045;DHT22;10183;47.808;9.476;2023-09-08T16:29:09;33.90;82.70
20045;DHT22;10183;47.808;9.476;2023-09-08T16:31:55;33.20;95.80
20045;DHT22;10183;47.808;9.476;2023-09-08T16:34:41;33.50;95.40
20045;DHT22;10183;47.808;9.476;2023-09-08T16:37:27;33.70;92.50
20045;DHT22;10183;47.808;9.476;2023-09-08T16:40:13;34.10;87.20
20045;DHT22;10183;47.808;9.476;2023-09-08T16:43:00;34.20;88.20
20045;DHT22;10183;47.808;9.476;2023-09-08T16:45:48;33.90;90.90
20045;DHT22;10183;47.808;9.476;2023-09-08T16:48:34;33.50;95.40
20045;DHT22;10183;47.808;9.476;2023-09-08T16:51:20;33.00;98.50
20045;DHT22;10183;47.808;9.476;2023-09-08T16:54:06;32.30;99.90
20045;DHT22;10183;47.808;9.476;2023-09-08T16:56:53;31.30;99.90
20045;DHT22;10183;47.808;9.476;2023-09-08T16:59:39;30.50;99.90
20045;DHT22;10183;47.808;9.476;2023-09-08T17:02:25;30.10;99.90
20045;DHT22;10183;47.808;9.476;2023-09-08T17:05:12;30.00;99.90
20045;DHT22;10183;47.808;9.476;2023-09-08T17:08:01;29.30;99.90
20045;DHT22;10183;47.808;9.476;2023-09-08T17:10:48;29.10;99.90
20045;DHT22;10183;47.808;9.476;2023-09-08T17:13:34;28.70;99.90
20045;DHT22;10183;47.808;9.476;2023-09-08T17:16:20;28.20;99.90
20045;DHT22;10183;47.808;9.476;2023-09-08T17:19:07;27.90;99.90
20045;DHT22;10183;47.808;9.476;2023-09-08T17:21:53;27.70;99.90
20045;DHT22;10183;47.808;9.476;2023-09-08T17:24:40;27.20;99.90
20045;DHT22;10183;47.808;9.476;2023-09-08T17:27:26;26.70;99.90
20045;DHT22;10183;47.808;9.476;2023-09-08T17:30:13;26.20;99.90
20045;DHT22;10183;47.808;9.476;2023-09-08T17:32:59;25.80;99.90
20045;DHT22;10183;47.808;9.476;2023-09-08T17:35:46;25.60;99.90
20045;DHT22;10183;47.808;9.476;2023-09-08T17:38:33;25.20;99.90
20045;DHT22;10183;47.808;9.476;2023-09-08T17:41:19;24.80;99.90
20045;DHT22;10183;47.808;9.476;2023-09-08T17:44:04;24.60;99.90
20045;DHT22;10183;47.808;9.476;2023-09-08T17:46:50;24.30;99.90